Time,TemperatureF,DewpointF,PressureIn,WindDirection,WindDirectionDegrees,WindSpeedMPH,WindSpeedGustMPH,Humidity,HourlyPrecipIn,Conditions,Clouds,dailyrainin,SoftwareType,DateUTC
2013-01-25 00:04:00,6.0,-99.9,-100.00,North,-999,0.0,0.0,-999,-99.99,,,-99.99,,2013-01-25 05:04:00,
2013-01-25 00:12:00,6.0,-99.9,-100.00,North,-999,0.0,0.0,-999,-99.99,,,-99.99,,2013-01-25 05:12:00,
2013-01-25 00:22:00,6.0,-99.9,-100.00,North,-999,0.0,0.0,-999,-99.99,,,-99.99,,2013-01-25 05:22:00,
2013-01-25 00:32:00,6.0,-99.9,-100.00,North,-999,0.0,0.0,-999,-99.99,,,-99.99,,2013-01-25 05:32:00,
2013-01-25 00:40:00,8.0,-99.9,-100.00,South,173,2.0,4.0,-999,-99.99,,,-99.99,,2013-01-25 05:40:00,
2013-01-25 01:02:00,8.0,-99.9,-100.00,South,173,2.0,4.0,-999,-99.99,,,-99.99,,2013-01-25 06:02:00,
2013-01-25 01:12:00,8.0,-99.9,-100.00,South,173,2.0,4.0,-999,-99.99,,,-99.99,,2013-01-25 06:12:00,
2013-01-25 01:22:00,8.0,-99.9,-100.00,South,173,2.0,4.0,-999,-99.99,,,-99.99,,2013-01-25 06:22:00,
2013-01-25 01:32:00,8.0,-99.9,-100.00,South,173,2.0,4.0,-999,-99.99,,,-99.99,,2013-01-25 06:32:00,
2013-01-25 02:02:00,9.0,-99.9,-100.00,SSE,160,5.0,8.0,-999,-99.99,,,-99.99,,2013-01-25 07:02:00,
2013-01-25 02:11:00,9.0,-99.9,-100.00,SSE,160,5.0,8.0,-999,-99.99,,,-99.99,,2013-01-25 07:11:00,
2013-01-25 02:22:00,9.0,-99.9,-100.00,SSE,160,5.0,8.0,-999,-99.99,,,-99.99,,2013-01-25 07:22:00,
2013-01-25 02:32:00,9.0,-99.9,-100.00,SSE,168,5.0,10.0,-999,-99.99,,,-99.99,,2013-01-25 07:32:00,
2013-01-25 02:40:00,9.0,-99.9,-100.00,SSE,152,3.0,7.0,-999,-99.99,,,-99.99,,2013-01-25 07:40:00,
2013-01-25 02:42:00,9.0,-99.9,-100.00,SSE,168,5.0,10.0,-999,-99.99,,,-99.99,,2013-01-25 07:42:00,
2013-01-25 02:52:00,9.0,-99.9,-100.00,SSE,168,5.0,10.0,-999,-99.99,,,-99.99,,2013-01-25 07:52:00,
2013-01-25 03:02:00,9.0,-99.9,-100.00,SSE,152,3.0,7.0,-999,-99.99,,,-99.99,,2013-01-25 08:02:00,
2013-01-25 03:12:00,9.0,-99.9,-100.00,SSE,152,3.0,7.0,-999,-99.99,,,-99.99,,2013-01-25 08:12:00,
2013-01-25 03:22:00,9.0,-99.9,-100.00,SSE,152,3.0,7.0,-999,-99.99,,,-99.99,,2013-01-25 08:22:00,
2013-01-25 03:32:00,9.0,-99.9,-100.00,SSE,152,3.0,7.0,-999,-99.99,,,-99.99,,2013-01-25 08:32:00,
2013-01-25 03:40:00,11.0,-99.9,-100.00,SSE,155,3.0,7.0,-999,-99.99,,,-99.99,,2013-01-25 08:40:00,
2013-01-25 04:02:00,11.0,-99.9,-100.00,SSE,155,3.0,7.0,-999,-99.99,,,-99.99,,2013-01-25 09:02:00,
2013-01-25 04:11:00,11.0,-99.9,-100.00,SSE,155,3.0,7.0,-999,-99.99,,,-99.99,,2013-01-25 09:11:00,
2013-01-25 04:22:00,11.0,-99.9,-100.00,SSE,155,3.0,7.0,-999,-99.99,,,-99.99,,2013-01-25 09:22:00,
2013-01-25 04:32:00,11.0,-99.9,-100.00,SSE,155,3.0,7.0,-999,-99.99,,,-99.99,,2013-01-25 09:32:00,
2013-01-25 05:02:00,12.0,-99.9,-100.00,SSE,161,6.0,10.0,-999,-99.99,,,-99.99,,2013-01-25 10:02:00,
2013-01-25 05:12:00,12.0,-99.9,-100.00,SSE,161,6.0,10.0,-999,-99.99,,,-99.99,,2013-01-25 10:12:00,
2013-01-25 05:22:00,12.0,-99.9,-100.00,SSE,161,6.0,11.0,-999,-99.99,,,-99.99,,2013-01-25 10:22:00,
2013-01-25 05:32:00,12.0,-99.9,-100.00,SSE,161,6.0,11.0,-999,-99.99,,,-99.99,,2013-01-25 10:32:00,
2013-01-25 05:40:00,13.0,-99.9,-100.00,South,171,7.0,10.0,-999,-99.99,,,-99.99,,2013-01-25 10:40:00,
2013-01-25 05:42:00,12.0,-99.9,-100.00,SSE,161,6.0,11.0,-999,-99.99,,,-99.99,,2013-01-25 10:42:00,
2013-01-25 05:52:00,12.0,-99.9,-100.00,SSE,161,6.0,11.0,-999,-99.99,,,-99.99,,2013-01-25 10:52:00,
2013-01-25 06:03:00,13.0,-99.9,-100.00,South,171,7.0,10.0,-999,-99.99,,,-99.99,,2013-01-25 11:03:00,
2013-01-25 06:12:00,13.0,-99.9,-100.00,South,171,7.0,10.0,-999,-99.99,,,-99.99,,2013-01-25 11:12:00,
2013-01-25 06:22:00,13.0,-99.9,-100.00,South,171,7.0,10.0,-999,-99.99,,,-99.99,,2013-01-25 11:22:00,
2013-01-25 06:33:00,13.0,-99.9,-100.00,South,171,7.0,10.0,-999,-99.99,,,-99.99,,2013-01-25 11:33:00,
2013-01-25 07:03:00,13.0,-99.9,-100.00,South,171,3.0,9.0,-999,-99.99,,,-99.99,,2013-01-25 12:03:00,
2013-01-25 07:12:00,13.0,-99.9,-100.00,South,171,3.0,9.0,-999,-99.99,,,-99.99,,2013-01-25 12:12:00,
2013-01-25 07:22:00,13.0,-99.9,-100.00,South,171,3.0,9.0,-999,-99.99,,,-99.99,,2013-01-25 12:22:00,
2013-01-25 07:33:00,13.0,-99.9,-100.00,South,173,7.0,14.0,-999,-99.99,,,-99.99,,2013-01-25 12:33:00,
2013-01-25 07:40:00,13.0,-99.9,-100.00,South,178,5.0,9.0,-999,-99.99,,,-99.99,,2013-01-25 12:40:00,
2013-01-25 07:42:00,13.0,-99.9,-100.00,South,173,7.0,14.0,-999,-99.99,,,-99.99,,2013-01-25 12:42:00,
2013-01-25 07:53:00,13.0,-99.9,-100.00,South,173,7.0,14.0,-999,-99.99,,,-99.99,,2013-01-25 12:53:00,
2013-01-25 08:03:00,13.0,-99.9,-100.00,South,178,5.0,9.0,-999,-99.99,,,-99.99,,2013-01-25 13:03:00,
2013-01-25 08:12:00,13.0,-99.9,-100.00,South,178,5.0,9.0,-999,-99.99,,,-99.99,,2013-01-25 13:12:00,
2013-01-25 08:22:00,13.0,-99.9,-100.00,South,178,5.0,9.0,-999,-99.99,,,-99.99,,2013-01-25 13:22:00,
2013-01-25 08:33:00,13.0,-99.9,-100.00,South,178,5.0,9.0,-999,-99.99,,,-99.99,,2013-01-25 13:33:00,
2013-01-25 08:40:00,13.0,-99.9,-100.00,South,182,3.0,8.0,-999,-99.99,,,-99.99,,2013-01-25 13:40:00,
2013-01-25 09:03:00,13.0,-99.9,-100.00,South,182,3.0,8.0,-999,-99.99,,,-99.99,,2013-01-25 14:03:00,
2013-01-25 09:13:00,13.0,-99.9,-100.00,South,182,3.0,8.0,-999,-99.99,,,-99.99,,2013-01-25 14:13:00,
2013-01-25 09:23:00,13.0,-99.9,-100.00,South,182,3.0,8.0,-999,-99.99,,,-99.99,,2013-01-25 14:23:00,
2013-01-25 09:33:00,13.0,-99.9,-100.00,South,182,3.0,8.0,-999,-99.99,,,-99.99,,2013-01-25 14:33:00,
2013-01-25 09:40:00,14.0,-99.9,-100.00,SSW,212,5.0,10.0,-999,-99.99,,,-99.99,,2013-01-25 14:40:00,
2013-01-25 10:03:00,14.0,-99.9,-100.00,SSW,212,5.0,10.0,-999,-99.99,,,-99.99,,2013-01-25 15:03:00,
2013-01-25 10:13:00,14.0,-99.9,-100.00,SSW,212,5.0,10.0,-999,-99.99,,,-99.99,,2013-01-25 15:13:00,
2013-01-25 10:23:00,14.0,-99.9,-100.00,SSW,212,5.0,10.0,-999,-99.99,,,-99.99,,2013-01-25 15:23:00,
2013-01-25 10:33:00,14.0,-99.9,-100.00,SSW,212,5.0,10.0,-999,-99.99,,,-99.99,,2013-01-25 15:33:00,
2013-01-25 10:40:00,15.0,-99.9,-100.00,South,178,5.0,14.0,-999,-99.99,,,-99.99,,2013-01-25 15:40:00,
2013-01-25 11:04:00,15.0,-99.9,-100.00,South,178,5.0,14.0,-999,-99.99,,,-99.99,,2013-01-25 16:04:00,
2013-01-25 11:12:00,15.0,-99.9,-100.00,South,178,5.0,14.0,-999,-99.99,,,-99.99,,2013-01-25 16:12:00,
2013-01-25 11:23:00,15.0,-99.9,-100.00,South,178,5.0,14.0,-999,-99.99,,,-99.99,,2013-01-25 16:23:00,
2013-01-25 11:33:00,15.0,-99.9,-100.00,South,178,5.0,14.0,-999,-99.99,,,-99.99,,2013-01-25 16:33:00,
2013-01-25 11:40:00,17.0,-99.9,-100.00,SW,224,4.0,7.0,-999,-99.99,,,-99.99,,2013-01-25 16:40:00,
2013-01-25 12:03:00,17.0,-99.9,-100.00,SW,224,4.0,7.0,-999,-99.99,,,-99.99,,2013-01-25 17:03:00,
2013-01-25 12:12:00,17.0,-99.9,-100.00,SW,224,4.0,7.0,-999,-99.99,,,-99.99,,2013-01-25 17:12:00,
2013-01-25 12:23:00,17.0,-99.9,-100.00,SW,224,4.0,7.0,-999,-99.99,,,-99.99,,2013-01-25 17:23:00,
2013-01-25 12:33:00,17.0,-99.9,-100.00,SW,224,4.0,7.0,-999,-99.99,,,-99.99,,2013-01-25 17:33:00,
2013-01-25 12:40:00,18.0,-99.9,-100.00,West,259,2.0,6.0,-999,-99.99,,,-99.99,,2013-01-25 17:40:00,
2013-01-25 13:04:00,18.0,-99.9,-100.00,West,259,2.0,6.0,-999,-99.99,,,-99.99,,2013-01-25 18:04:00,
2013-01-25 13:12:00,18.0,-99.9,-100.00,West,259,2.0,6.0,-999,-99.99,,,-99.99,,2013-01-25 18:12:00,
2013-01-25 13:24:00,18.0,-99.9,-100.00,West,259,2.0,6.0,-999,-99.99,,,-99.99,,2013-01-25 18:24:00,
2013-01-25 13:34:00,18.0,-99.9,-100.00,West,259,2.0,6.0,-999,-99.99,,,-99.99,,2013-01-25 18:34:00,
2013-01-25 13:40:00,21.0,-99.9,-100.00,West,270,1.0,5.0,-999,-99.99,,,-99.99,,2013-01-25 18:40:00,
2013-01-25 14:03:00,21.0,-99.9,-100.00,West,270,1.0,5.0,-999,-99.99,,,-99.99,,2013-01-25 19:03:00,
2013-01-25 14:12:00,21.0,-99.9,-100.00,West,270,1.0,5.0,-999,-99.99,,,-99.99,,2013-01-25 19:12:00,
2013-01-25 14:23:00,21.0,-99.9,-100.00,West,270,1.0,5.0,-999,-99.99,,,-99.99,,2013-01-25 19:23:00,
2013-01-25 14:33:00,21.0,-99.9,-100.00,West,270,1.0,5.0,-999,-99.99,,,-99.99,,2013-01-25 19:33:00,
2013-01-25 14:40:00,19.0,-99.9,-100.00,NNW,343,3.0,6.0,-999,-99.99,,,-99.99,,2013-01-25 19:40:00,
2013-01-25 15:03:00,19.0,-99.9,-100.00,NNW,343,3.0,6.0,-999,-99.99,,,-99.99,,2013-01-25 20:03:00,
2013-01-25 15:13:00,19.0,-99.9,-100.00,NNW,343,3.0,6.0,-999,-99.99,,,-99.99,,2013-01-25 20:13:00,
2013-01-25 15:23:00,19.0,-99.9,-100.00,NNW,343,3.0,6.0,-999,-99.99,,,-99.99,,2013-01-25 20:23:00,
2013-01-25 15:33:00,19.0,-99.9,-100.00,NNW,343,3.0,6.0,-999,-99.99,,,-99.99,,2013-01-25 20:33:00,
2013-01-25 15:40:00,18.0,-99.9,-100.00,NW,316,4.0,7.0,-999,-99.99,,,-99.99,,2013-01-25 20:40:00,
2013-01-25 16:02:00,18.0,-99.9,-100.00,NW,316,4.0,7.0,-999,-99.99,,,-99.99,,2013-01-25 21:02:00,
2013-01-25 16:12:00,18.0,-99.9,-100.00,NW,316,4.0,7.0,-999,-99.99,,,-99.99,,2013-01-25 21:12:00,
2013-01-25 16:23:00,18.0,-99.9,-100.00,NW,316,4.0,7.0,-999,-99.99,,,-99.99,,2013-01-25 21:23:00,
2013-01-25 16:33:00,18.0,-99.9,-100.00,NW,316,4.0,7.0,-999,-99.99,,,-99.99,,2013-01-25 21:33:00,
2013-01-25 16:40:00,19.0,-99.9,-100.00,West,271,2.0,5.0,-999,-99.99,,,-99.99,,2013-01-25 21:40:00,
2013-01-25 17:03:00,19.0,-99.9,-100.00,West,271,2.0,5.0,-999,-99.99,,,-99.99,,2013-01-25 22:03:00,
2013-01-25 17:12:00,19.0,-99.9,-100.00,West,271,2.0,5.0,-999,-99.99,,,-99.99,,2013-01-25 22:12:00,
2013-01-25 17:23:00,19.0,-99.9,-100.00,West,271,2.0,5.0,-999,-99.99,,,-99.99,,2013-01-25 22:23:00,
2013-01-25 17:33:00,19.0,-99.9,-100.00,West,271,2.0,5.0,-999,-99.99,,,-99.99,,2013-01-25 22:33:00,
2013-01-25 17:40:00,17.0,-99.9,-100.00,SW,229,2.0,4.0,-999,-99.99,,,-99.99,,2013-01-25 22:40:00,
2013-01-25 18:03:00,17.0,-99.9,-100.00,SW,229,2.0,4.0,-999,-99.99,,,-99.99,,2013-01-25 23:03:00,
2013-01-25 18:12:00,17.0,-99.9,-100.00,SW,229,2.0,4.0,-999,-99.99,,,-99.99,,2013-01-25 23:12:00,
2013-01-25 18:22:00,17.0,-99.9,-100.00,SW,229,2.0,4.0,-999,-99.99,,,-99.99,,2013-01-25 23:22:00,
2013-01-25 18:32:00,17.0,-99.9,-100.00,SW,229,2.0,4.0,-999,-99.99,,,-99.99,,2013-01-25 23:32:00,
2013-01-25 18:40:00,17.0,-99.9,-100.00,WSW,246,1.0,5.0,-999,-99.99,,,-99.99,,2013-01-25 23:40:00,
2013-01-25 19:03:00,17.0,-99.9,-100.00,WSW,246,1.0,5.0,-999,-99.99,,,-99.99,,2013-01-26 00:03:00,
2013-01-25 19:12:00,17.0,-99.9,-100.00,WSW,246,1.0,5.0,-999,-99.99,,,-99.99,,2013-01-26 00:12:00,
2013-01-25 19:22:00,17.0,-99.9,-100.00,WSW,246,1.0,5.0,-999,-99.99,,,-99.99,,2013-01-26 00:22:00,
2013-01-25 19:33:00,17.0,-99.9,-100.00,WSW,246,1.0,5.0,-999,-99.99,,,-99.99,,2013-01-26 00:33:00,
2013-01-25 19:40:00,17.0,-99.9,-100.00,West,270,5.0,11.0,-999,-99.99,,,-99.99,,2013-01-26 00:40:00,
2013-01-25 20:02:00,17.0,-99.9,-100.00,West,270,5.0,11.0,-999,-99.99,,,-99.99,,2013-01-26 01:02:00,
2013-01-25 20:12:00,17.0,-99.9,-100.00,West,270,5.0,11.0,-999,-99.99,,,-99.99,,2013-01-26 01:12:00,
2013-01-25 20:22:00,17.0,-99.9,-100.00,West,270,5.0,11.0,-999,-99.99,,,-99.99,,2013-01-26 01:22:00,
2013-01-25 20:32:00,17.0,-99.9,-100.00,West,270,5.0,11.0,-999,-99.99,,,-99.99,,2013-01-26 01:32:00,
2013-01-25 20:40:00,17.0,-99.9,-100.00,West,276,5.0,10.0,-999,-99.99,,,-99.99,,2013-01-26 01:40:00,
2013-01-25 21:02:00,17.0,-99.9,-100.00,West,276,5.0,10.0,-999,-99.99,,,-99.99,,2013-01-26 02:02:00,
2013-01-25 21:12:00,17.0,-99.9,-100.00,West,276,5.0,10.0,-999,-99.99,,,-99.99,,2013-01-26 02:12:00,
2013-01-25 21:22:00,17.0,-99.9,-100.00,West,276,5.0,10.0,-999,-99.99,,,-99.99,,2013-01-26 02:22:00,
2013-01-25 21:32:00,17.0,-99.9,-100.00,West,276,5.0,10.0,-999,-99.99,,,-99.99,,2013-01-26 02:32:00,
2013-01-25 21:40:00,18.0,-99.9,-100.00,West,270,4.0,10.0,-999,-99.99,,,-99.99,,2013-01-26 02:40:00,
2013-01-25 22:02:00,18.0,-99.9,-100.00,West,270,4.0,10.0,-999,-99.99,,,-99.99,,2013-01-26 03:02:00,
2013-01-25 22:12:00,18.0,-99.9,-100.00,West,270,4.0,10.0,-999,-99.99,,,-99.99,,2013-01-26 03:12:00,
2013-01-25 22:22:00,18.0,-99.9,-100.00,West,270,4.0,10.0,-999,-99.99,,,-99.99,,2013-01-26 03:22:00,
2013-01-25 22:32:00,18.0,-99.9,-100.00,West,270,4.0,10.0,-999,-99.99,,,-99.99,,2013-01-26 03:32:00,
2013-01-25 22:40:00,19.0,-99.9,-100.00,West,260,4.0,8.0,-999,-99.99,,,-99.99,,2013-01-26 03:40:00,
2013-01-25 23:02:00,19.0,-99.9,-100.00,West,260,4.0,8.0,-999,-99.99,,,-99.99,,2013-01-26 04:02:00,
2013-01-25 23:12:00,19.0,-99.9,-100.00,West,260,4.0,8.0,-999,-99.99,,,-99.99,,2013-01-26 04:12:00,
2013-01-25 23:22:00,19.0,-99.9,-100.00,West,260,4.0,8.0,-999,-99.99,,,-99.99,,2013-01-26 04:22:00,
2013-01-25 23:32:00,19.0,-99.9,-100.00,West,260,4.0,8.0,-999,-99.99,,,-99.99,,2013-01-26 04:32:00,
2013-01-25 23:40:00,19.0,-99.9,-100.00,West,278,4.0,8.0,-999,-99.99,,,-99.99,,2013-01-26 04:40:00,